sensor_id;sensor_type;location;lat;lon;timestamp;temperature;humidity
1025;DHT22;501;48.214;11.350;2022-09-03T00:10:48;15.40;43.70
1025;DHT22;501;48.214;11.350;2022-09-03T00:13:23;15.40;43.50
1025;DHT22;501;48.214;11.350;2022-09-03T00:15:52;15.40;43.90
1025;DHT22;501;48.214;11.350;2022-09-03T00:18:22;15.40;43.70
1025;DHT22;501;48.214;11.350;2022-09-03T00:21:11;15.40;43.60
1025;DHT22;501;48.214;11.350;2022-09-03T00:23:41;15.40;43.90
1025;DHT22;501;48.214;11.350;2022-09-03T00:31:33;15.40;44.10
1025;DHT22;501;48.214;11.350;2022-09-03T00:34:08;15.40;44.10
1025;DHT22;501;48.214;11.350;2022-09-03T00:36:38;15.40;44.90
1025;DHT22;501;48.214;11.350;2022-09-03T00:39:13;15.40;45.10
1025;DHT22;501;48.214;11.350;2022-09-03T00:50:39;15.30;45.00
1025;DHT22;501;48.214;11.350;2022-09-03T00:53:34;15.30;45.00
1025;DHT22;501;48.214;11.350;2022-09-03T01:04:34;15.10;44.80
1025;DHT22;501;48.214;11.350;2022-09-03T01:10:07;15.00;45.80
1025;DHT22;501;48.214;11.350;2022-09-03T01:18:05;15.00;46.40
1025;DHT22;501;48.214;11.350;2022-09-03T01:28:47;14.90;46.30
1025;DHT22;501;48.214;11.350;2022-09-03T01:31:45;14.90;46.80
1025;DHT22;501;48.214;11.350;2022-09-03T01:37:15;14.80;46.80
1025;DHT22;501;48.214;11.350;2022-09-03T01:42:57;14.80;46.90
1025;DHT22;501;48.214;11.350;2022-09-03T01:51:02;14.70;47.40
1025;DHT22;501;48.214;11.350;2022-09-03T02:02:30;14.60;47.60
1025;DHT22;501;48.214;11.350;2022-09-03T02:04:37;14.60;47.90
1025;DHT22;501;48.214;11.350;2022-09-03T02:07:02;14.60;48.00
1025;DHT22;501;48.214;11.350;2022-09-03T02:09:29;14.50;48.20
1025;DHT22;501;48.214;11.350;2022-09-03T02:12:02;14.50;48.30
1025;DHT22;501;48.214;11.350;2022-09-03T02:14:32;14.50;48.60
1025;DHT22;501;48.214;11.350;2022-09-03T02:16:59;14.50;48.40
1025;DHT22;501;48.214;11.350;2022-09-03T02:19:27;14.40;48.10
1025;DHT22;501;48.214;11.350;2022-09-03T02:21:55;14.40;47.90
1025;DHT22;501;48.214;11.350;2022-09-03T02:24:21;14.40;48.40
1025;DHT22;501;48.214;11.350;2022-09-03T02:26:47;14.40;48.30
1025;DHT22;501;48.214;11.350;2022-09-03T02:29:14;14.30;48.50
1025;DHT22;501;48.214;11.350;2022-09-03T02:31:42;14.30;48.30
1025;DHT22;501;48.214;11.350;2022-09-03T02:34:08;14.30;49.10
1025;DHT22;501;48.214;11.350;2022-09-03T02:36:37;14.30;49.00
1025;DHT22;501;48.214;11.350;2022-09-03T02:39:04;14.30;48.70
1025;DHT22;501;48.214;11.350;2022-09-03T02:41:30;14.20;48.60
1025;DHT22;501;48.214;11.350;2022-09-03T02:44:04;14.20;48.90
1025;DHT22;501;48.214;11.350;2022-09-03T02:46:40;14.20;49.00
1025;DHT22;501;48.214;11.350;2022-09-03T02:49:08;14.20;49.40
1025;DHT22;501;48.214;11.350;2022-09-03T02:51:38;14.10;49.50
1025;DHT22;501;48.214;11.350;2022-09-03T02:54:04;14.10;49.40
1025;DHT22;501;48.214;11.350;2022-09-03T02:56:30;14.10;49.20
1025;DHT22;501;48.214;11.350;2022-09-03T02:58:56;14.10;49.70
1025;DHT22;501;48.214;11.350;2022-09-03T03:01:22;14.00;50.10
1025;DHT22;501;48.214;11.350;2022-09-03T03:03:48;14.00;50.40
1025;DHT22;501;48.214;11.350;2022-09-03T03:06:15;14.00;50.70
1025;DHT22;501;48.214;11.350;2022-09-03T03:08:40;13.90;50.60
1025;DHT22;501;48.214;11.350;2022-09-03T03:11:08;13.90;50.60
1025;DHT22;501;48.214;11.350;2022-09-03T03:13:34;13.90;50.80
1025;DHT22;501;48.214;11.350;2022-09-03T03:16:02;13.90;50.90
1025;DHT22;501;48.214;11.350;2022-09-03T03:18:28;13.80;50.60
1025;DHT22;501;48.214;11.350;2022-09-03T03:20:54;13.80;51.30
1025;DHT22;501;48.214;11.350;2022-09-03T03:23:20;13.80;52.30
1025;DHT22;501;48.214;11.350;2022-09-03T03:25:46;13.70;52.00
1025;DHT22;501;48.214;11.350;2022-09-03T03:28:12;13.70;52.10
1025;DHT22;501;48.214;11.350;2022-09-03T03:30:38;13.70;51.40
1025;DHT22;501;48.214;11.350;2022-09-03T03:33:08;13.70;51.10
1025;DHT22;501;48.214;11.350;2022-09-03T03:35:35;13.70;51.30
1025;DHT22;501;48.214;11.350;2022-09-03T03:38:00;13.60;51.60
1025;DHT22;501;48.214;11.350;2022-09-03T03:40:27;13.60;51.60
1025;DHT22;501;48.214;11.350;2022-09-03T03:42:52;13.60;51.50
1025;DHT22;501;48.214;11.350;2022-09-03T03:45:18;13.60;51.80
1025;DHT22;501;48.214;11.350;2022-09-03T03:47:44;13.60;52.20
1025;DHT22;501;48.214;11.350;2022-09-03T03:50:10;13.60;51.70
1025;DHT22;501;48.214;11.350;2022-09-03T03:52:36;13.50;51.60
1025;DHT22;501;48.214;11.350;2022-09-03T03:55:01;13.50;52.10
1025;DHT22;501;48.214;11.350;2022-09-03T03:57:29;13.50;52.20
1025;DHT22;501;48.214;11.350;2022-09-03T03:59:56;13.50;52.10
1025;DHT22;501;48.214;11.350;2022-09-03T04:02:22;13.40;52.60
1025;DHT22;501;48.214;11.350;2022-09-03T04:04:47;13.40;54.30
1025;DHT22;501;48.214;11.350;2022-09-03T04:07:13;13.40;54.60
1025;DHT22;501;48.214;11.350;2022-09-03T04:09:38;13.40;54.50
1025;DHT22;501;48.214;11.350;2022-09-03T04:12:04;13.40;54.40
1025;DHT22;501;48.214;11.350;2022-09-03T04:14:33;13.50;54.70
1025;DHT22;501;48.214;11.350;2022-09-03T04:16:59;13.50;54.70
1025;DHT22;501;48.214;11.350;2022-09-03T04:19:25;13.50;54.20
1025;DHT22;501;48.214;11.350;2022-09-03T04:21:53;13.50;53.80
1025;DHT22;501;48.214;11.350;2022-09-03T04:24:19;13.50;54.10
1025;DHT22;501;48.214;11.350;2022-09-03T04:26:45;13.50;54.20
1025;DHT22;501;48.214;11.350;2022-09-03T04:29:11;13.50;55.00
1025;DHT22;501;48.214;11.350;2022-09-03T04:31:37;13.60;55.00
1025;DHT22;501;48.214;11.350;2022-09-03T04:34:04;13.60;54.60
1025;DHT22;501;48.214;11.350;2022-09-03T04:36:32;13.60;54.80
1025;DHT22;501;48.214;11.350;2022-09-03T04:39:00;13.60;54.60
1025;DHT22;501;48.214;11.350;2022-09-03T04:41:30;13.60;54.60
1025;DHT22;501;48.214;11.350;2022-09-03T04:43:57;13.70;53.60
1025;DHT22;501;48.214;11.350;2022-09-03T04:46:26;13.70;54.70
1025;DHT22;501;48.214;11.350;2022-09-03T04:48:56;13.70;54.20
1025;DHT22;501;48.214;11.350;2022-09-03T04:51:25;13.70;54.30
1025;DHT22;501;48.214;11.350;2022-09-03T04:53:59;13.70;54.40
1025;DHT22;501;48.214;11.350;2022-09-03T04:56:30;13.70;54.10
1025;DHT22;501;48.214;11.350;2022-09-03T04:59:07;13.80;54.10
1025;DHT22;501;48.214;11.350;2022-09-03T05:01:34;13.70;53.70
1025;DHT22;501;48.214;11.350;2022-09-03T05:04:01;13.80;54.30
1025;DHT22;501;48.214;11.350;2022-09-03T05:06:28;13.80;54.40
1025;DHT22;501;48.214;11.350;2022-09-03T05:08:55;13.80;54.70
1025;DHT22;501;48.214;11.350;2022-09-03T05:11:21;13.80;55.00
1025;DHT22;501;48.214;11.350;2022-09-03T05:13:48;13.90;55.10
1025;DHT22;501;48.214;11.350;2022-09-03T05:16:15;13.90;54.80
1025;DHT22;501;48.214;11.350;2022-09-03T05:18:41;13.90;55.00
1025;DHT22;501;48.214;11.350;2022-09-03T05:21:09;13.90;54.80
1025;DHT22;501;48.214;11.350;2022-09-03T05:23:41;14.00;54.70
1025;DHT22;501;48.214;11.350;2022-09-03T05:26:09;14.00;55.20
1025;DHT22;501;48.214;11.350;2022-09-03T05:28:37;14.00;56.00
1025;DHT22;501;48.214;11.350;2022-09-03T05:31:11;14.00;56.20
1025;DHT22;501;48.214;11.350;2022-09-03T05:33:39;14.10;55.90
1025;DHT22;501;48.214;11.350;2022-09-03T05:36:07;14.20;55.00
1025;DHT22;501;48.214;11.350;2022-09-03T05:38:33;14.20;54.70
1025;DHT22;501;48.214;11.350;2022-09-03T05:41:00;14.20;54.40
1025;DHT22;501;48.214;11.350;2022-09-03T05:43:27;14.20;54.80
1025;DHT22;501;48.214;11.350;2022-09-03T05:46:01;14.20;55.00
1025;DHT22;501;48.214;11.350;2022-09-03T05:48:31;14.30;54.70
1025;DHT22;501;48.214;11.350;2022-09-03T05:51:02;14.30;54.70
1025;DHT22;501;48.214;11.350;2022-09-03T05:53:29;14.30;53.60
1025;DHT22;501;48.214;11.350;2022-09-03T05:56:05;14.30;52.90
1025;DHT22;501;48.214;11.350;2022-09-03T05:58:32;14.40;52.10
1025;DHT22;501;48.214;11.350;2022-09-03T06:00:59;14.40;51.80
1025;DHT22;501;48.214;11.350;2022-09-03T06:03:25;14.40;52.40
1025;DHT22;501;48.214;11.350;2022-09-03T06:05:52;14.40;53.60
1025;DHT22;501;48.214;11.350;2022-09-03T06:08:19;14.50;53.10
1025;DHT22;501;48.214;11.350;2022-09-03T06:10:45;14.50;53.10
1025;DHT22;501;48.214;11.350;2022-09-03T06:13:11;14.50;53.70
1025;DHT22;501;48.214;11.350;2022-09-03T06:15:37;14.60;54.70
1025;DHT22;501;48.214;11.350;2022-09-03T06:18:04;14.60;54.00
1025;DHT22;501;48.214;11.350;2022-09-03T06:20:30;14.60;53.60
1025;DHT22;501;48.214;11.350;2022-09-03T06:22:57;14.70;53.30
1025;DHT22;501;48.214;11.350;2022-09-03T06:25:22;14.70;53.20
1025;DHT22;501;48.214;11.350;2022-09-03T06:27:49;14.80;53.90
1025;DHT22;501;48.214;11.350;2022-09-03T06:30:15;14.80;53.30
1025;DHT22;501;48.214;11.350;2022-09-03T06:32:48;14.80;53.30
1025;DHT22;501;48.214;11.350;2022-09-03T06:35:17;14.90;53.40
1025;DHT22;501;48.214;11.350;2022-09-03T06:37:43;14.90;52.60
1025;DHT22;501;48.214;11.350;2022-09-03T06:40:09;14.90;52.40
1025;DHT22;501;48.214;11.350;2022-09-03T06:42:39;15.00;53.00
1025;DHT22;501;48.214;11.350;2022-09-03T06:45:06;15.00;53.50
1025;DHT22;501;48.214;11.350;2022-09-03T06:47:32;15.00;54.00
1025;DHT22;501;48.214;11.350;2022-09-03T06:49:59;15.00;55.30
1025;DHT22;501;48.214;11.350;2022-09-03T06:52:25;15.00;56.90
1025;DHT22;501;48.214;11.350;2022-09-03T06:54:51;15.10;55.80
1025;DHT22;501;48.214;11.350;2022-09-03T06:57:17;15.10;57.40
1025;DHT22;501;48.214;11.350;2022-09-03T06:59:42;15.10;58.10
1025;DHT22;501;48.214;11.350;2022-09-03T07:02:09;15.10;56.10
1025;DHT22;501;48.214;11.350;2022-09-03T07:04:34;15.10;56.90
1025;DHT22;501;48.214;11.350;2022-09-03T07:07:00;15.10;57.00
1025;DHT22;501;48.214;11.350;2022-09-03T07:09:26;15.10;56.00
1025;DHT22;501;48.214;11.350;2022-09-03T07:11:53;15.10;57.30
1025;DHT22;501;48.214;11.350;2022-09-03T07:14:19;15.10;57.50
1025;DHT22;501;48.214;11.350;2022-09-03T07:16:49;15.10;56.90
1025;DHT22;501;48.214;11.350;2022-09-03T07:19:15;15.10;55.20
1025;DHT22;501;48.214;11.350;2022-09-03T07:21:41;15.10;56.70
1025;DHT22;501;48.214;11.350;2022-09-03T07:24:08;15.20;57.10
1025;DHT22;501;48.214;11.350;2022-09-03T07:26:37;15.20;57.10
1025;DHT22;501;48.214;11.350;2022-09-03T07:29:03;15.20;56.00
1025;DHT22;501;48.214;11.350;2022-09-03T07:31:41;15.20;55.90
1025;DHT22;501;48.214;11.350;2022-09-03T07:34:09;15.30;57.10
1025;DHT22;501;48.214;11.350;2022-09-03T07:36:41;15.30;57.00
1025;DHT22;501;48.214;11.350;2022-09-03T07:39:07;15.40;58.00
1025;DHT22;501;48.214;11.350;2022-09-03T07:41:33;15.40;58.90
1025;DHT22;501;48.214;11.350;2022-09-03T07:44:00;15.50;60.00
1025;DHT22;501;48.214;11.350;2022-09-03T07:46:32;15.50;60.20
1025;DHT22;501;48.214;11.350;2022-09-03T07:48:59;15.70;60.50
1025;DHT22;501;48.214;11.350;2022-09-03T07:51:30;15.80;60.70
1025;DHT22;501;48.214;11.350;2022-09-03T07:53:58;15.90;60.70
1025;DHT22;501;48.214;11.350;2022-09-03T07:56:25;16.00;57.80
1025;DHT22;501;48.214;11.350;2022-09-03T07:58:51;16.10;56.50
1025;DHT22;501;48.214;11.350;2022-09-03T08:01:21;16.20;55.30
1025;DHT22;501;48.214;11.350;2022-09-03T08:03:49;16.30;54.20
1025;DHT22;501;48.214;11.350;2022-09-03T08:06:16;16.30;54.70
1025;DHT22;501;48.214;11.350;2022-09-03T08:08:42;16.40;54.50
1025;DHT22;501;48.214;11.350;2022-09-03T08:11:14;16.50;54.60
1025;DHT22;501;48.214;11.350;2022-09-03T08:13:41;16.50;54.90
1025;DHT22;501;48.214;11.350;2022-09-03T08:16:10;16.70;55.50
1025;DHT22;501;48.214;11.350;2022-09-03T08:18:36;16.80;56.40
1025;DHT22;501;48.214;11.350;2022-09-03T08:21:08;16.90;55.90
1025;DHT22;501;48.214;11.350;2022-09-03T08:23:38;17.00;55.60
1025;DHT22;501;48.214;11.350;2022-09-03T08:26:04;17.10;54.90
1025;DHT22;501;48.214;11.350;2022-09-03T08:28:31;17.10;54.90
1025;DHT22;501;48.214;11.350;2022-09-03T08:31:08;17.20;54.70
1025;DHT22;501;48.214;11.350;2022-09-03T08:33:36;17.20;54.70
1025;DHT22;501;48.214;11.350;2022-09-03T08:38:33;17.20;54.50
1025;DHT22;501;48.214;11.350;2022-09-03T08:41:31;17.30;55.60
1025;DHT22;501;48.214;11.350;2022-09-03T08:52:29;17.40;54.70
1025;DHT22;501;48.214;11.350;2022-09-03T08:55:24;17.50;55.80
1025;DHT22;501;48.214;11.350;2022-09-03T08:58:08;17.60;55.90
1025;DHT22;501;48.214;11.350;2022-09-03T09:00:41;17.80;56.10
1025;DHT22;501;48.214;11.350;2022-09-03T09:11:48;18.20;53.60
1025;DHT22;501;48.214;11.350;2022-09-03T09:14:34;18.30;54.00
1025;DHT22;501;48.214;11.350;2022-09-03T09:20:09;18.60;53.60
1025;DHT22;501;48.214;11.350;2022-09-03T09:22:45;18.70;54.20
1025;DHT22;501;48.214;11.350;2022-09-03T09:25:15;18.80;54.10
1025;DHT22;501;48.214;11.350;2022-09-03T09:28:02;19.00;53.40
1025;DHT22;501;48.214;11.350;2022-09-03T09:30:29;19.10;52.90
1025;DHT22;501;48.214;11.350;2022-09-03T09:32:55;19.20;52.30
1025;DHT22;501;48.214;11.350;2022-09-03T09:35:22;19.30;52.00
1025;DHT22;501;48.214;11.350;2022-09-03T09:37:58;19.50;51.30
1025;DHT22;501;48.214;11.350;2022-09-03T09:40:38;19.70;51.50
1025;DHT22;501;48.214;11.350;2022-09-03T09:43:13;19.80;50.20
1025;DHT22;501;48.214;11.350;2022-09-03T09:45:45;19.90;49.20
1025;DHT22;501;48.214;11.350;2022-09-03T09:51:03;20.20;47.80
1025;DHT22;501;48.214;11.350;2022-09-03T09:53:30;20.30;46.80
1025;DHT22;501;48.214;11.350;2022-09-03T09:55:56;20.40;47.30
1025;DHT22;501;48.214;11.350;2022-09-03T09:58:24;20.50;45.80
1025;DHT22;501;48.214;11.350;2022-09-03T10:03:50;20.80;45.50
1025;DHT22;501;48.214;11.350;2022-09-03T10:06:17;21.00;44.60
1025;DHT22;501;48.214;11.350;2022-09-03T10:09:14;21.10;45.20
1025;DHT22;501;48.214;11.350;2022-09-03T10:11:43;21.30;44.70
1025;DHT22;501;48.214;11.350;2022-09-03T10:14:21;21.40;43.80
1025;DHT22;501;48.214;11.350;2022-09-03T10:16:55;21.40;43.40
1025;DHT22;501;48.214;11.350;2022-09-03T10:19:30;21.50;43.50
1025;DHT22;501;48.214;11.350;2022-09-03T10:22:11;21.60;43.00
1025;DHT22;501;48.214;11.350;2022-09-03T10:24:58;21.80;43.30
1025;DHT22;501;48.214;11.350;2022-09-03T10:27:25;21.90;41.90
1025;DHT22;501;48.214;11.350;2022-09-03T10:29:51;22.00;42.00
1025;DHT22;501;48.214;11.350;2022-09-03T10:32:39;22.00;40.10
1025;DHT22;501;48.214;11.350;2022-09-03T10:40:43;22.10;41.80
1025;DHT22;501;48.214;11.350;2022-09-03T10:43:25;22.20;42.20
1025;DHT22;501;48.214;11.350;2022-09-03T10:48:37;22.40;39.20
1025;DHT22;501;48.214;11.350;2022-09-03T10:51:19;22.50;40.80
1025;DHT22;501;48.214;11.350;2022-09-03T10:57:02;22.50;37.00
1025;DHT22;501;48.214;11.350;2022-09-03T11:05:08;22.50;36.50
1025;DHT22;501;48.214;11.350;2022-09-03T11:07:44;22.60;36.60
1025;DHT22;501;48.214;11.350;2022-09-03T11:10:32;22.60;36.60
1025;DHT22;501;48.214;11.350;2022-09-03T11:13:24;22.70;37.30
1025;DHT22;501;48.214;11.350;2022-09-03T11:16:05;22.80;37.00
1025;DHT22;501;48.214;11.350;2022-09-03T11:18:42;22.90;38.90
1025;DHT22;501;48.214;11.350;2022-09-03T11:21:12;23.00;38.00
1025;DHT22;501;48.214;11.350;2022-09-03T11:23:44;23.00;38.90
1025;DHT22;501;48.214;11.350;2022-09-03T11:26:16;23.00;39.10
1025;DHT22;501;48.214;11.350;2022-09-03T11:29:03;23.10;39.40
1025;DHT22;501;48.214;11.350;2022-09-03T11:34:58;23.30;38.90
1025;DHT22;501;48.214;11.350;2022-09-03T11:37:18;23.40;34.90
1025;DHT22;501;48.214;11.350;2022-09-03T11:39:55;23.60;35.50
1025;DHT22;501;48.214;11.350;2022-09-03T11:44:59;23.80;37.50
1025;DHT22;501;48.214;11.350;2022-09-03T11:47:42;23.90;36.80
1025;DHT22;501;48.214;11.350;2022-09-03T11:50:24;24.00;35.10
1025;DHT22;501;48.214;11.350;2022-09-03T11:55:51;24.10;34.50
1025;DHT22;501;48.214;11.350;2022-09-03T11:58:25;24.20;34.60
1025;DHT22;501;48.214;11.350;2022-09-03T12:00:53;24.20;34.00
1025;DHT22;501;48.214;11.350;2022-09-03T12:03:25;24.30;34.70
1025;DHT22;501;48.214;11.350;2022-09-03T12:19:09;25.90;33.20
1025;DHT22;501;48.214;11.350;2022-09-03T12:21:39;26.30;33.70
1025;DHT22;501;48.214;11.350;2022-09-03T12:24:06;26.70;32.80
1025;DHT22;501;48.214;11.350;2022-09-03T12:26:41;27.10;30.00
1025;DHT22;501;48.214;11.350;2022-09-03T12:29:23;27.50;29.80
1025;DHT22;501;48.214;11.350;2022-09-03T12:31:49;27.90;29.60
1025;DHT22;501;48.214;11.350;2022-09-03T12:34:18;28.30;29.10
1025;DHT22;501;48.214;11.350;2022-09-03T12:36:50;28.60;28.60
1025;DHT22;501;48.214;11.350;2022-09-03T12:39:22;29.00;27.40
1025;DHT22;501;48.214;11.350;2022-09-03T12:42:09;29.30;26.10
1025;DHT22;501;48.214;11.350;2022-09-03T12:47:10;29.90;24.90
1025;DHT22;501;48.214;11.350;2022-09-03T12:49:41;30.00;24.40
1025;DHT22;501;48.214;11.350;2022-09-03T12:55:00;30.30;24.10
1025;DHT22;501;48.214;11.350;2022-09-03T12:57:34;30.50;25.10
1025;DHT22;501;48.214;11.350;2022-09-03T13:00:05;30.60;23.90
1025;DHT22;501;48.214;11.350;2022-09-03T13:05:13;30.70;23.60
1025;DHT22;501;48.214;11.350;2022-09-03T13:07:48;30.70;24.30
1025;DHT22;501;48.214;11.350;2022-09-03T13:10:40;30.80;23.80
1025;DHT22;501;48.214;11.350;2022-09-03T13:13:24;31.00;23.40
1025;DHT22;501;48.214;11.350;2022-09-03T13:16:11;30.90;21.90
1025;DHT22;501;48.214;11.350;2022-09-03T13:18:46;30.70;22.30
1025;DHT22;501;48.214;11.350;2022-09-03T13:26:51;29.70;22.60
1025;DHT22;501;48.214;11.350;2022-09-03T13:43:42;27.60;26.20
1025;DHT22;501;48.214;11.350;2022-09-03T13:46:16;27.20;25.40
1025;DHT22;501;48.214;11.350;2022-09-03T13:48:47;26.80;26.50
1025;DHT22;501;48.214;11.350;2022-09-03T13:51:53;26.50;26.60
1025;DHT22;501;48.214;11.350;2022-09-03T13:54:34;26.10;27.30
1025;DHT22;501;48.214;11.350;2022-09-03T13:57:08;25.80;27.50
1025;DHT22;501;48.214;11.350;2022-09-03T14:05:08;24.70;29.50
1025;DHT22;501;48.214;11.350;2022-09-03T14:16:52;23.20;37.60
1025;DHT22;501;48.214;11.350;2022-09-03T14:19:02;22.80;39.80
1025;DHT22;501;48.214;11.350;2022-09-03T14:21:46;22.40;42.40
1025;DHT22;501;48.214;11.350;2022-09-03T14:27:35;21.70;42.10
1025;DHT22;501;48.214;11.350;2022-09-03T14:30:29;21.30;44.00
1025;DHT22;501;48.214;11.350;2022-09-03T14:35:52;20.80;46.20
1025;DHT22;501;48.214;11.350;2022-09-03T14:41:21;20.40;48.20
1025;DHT22;501;48.214;11.350;2022-09-03T14:47:01;20.20;48.10
1025;DHT22;501;48.214;11.350;2022-09-03T15:00:40;19.90;54.50
1025;DHT22;501;48.214;11.350;2022-09-03T15:09:25;19.70;57.80
1025;DHT22;501;48.214;11.350;2022-09-03T15:11:28;19.70;59.30
1025;DHT22;501;48.214;11.350;2022-09-03T15:19:38;19.60;62.20
1025;DHT22;501;48.214;11.350;2022-09-03T15:24:55;19.60;63.90
1025;DHT22;501;48.214;11.350;2022-09-03T15:30:17;19.50;63.30
1025;DHT22;501;48.214;11.350;2022-09-03T15:36:05;19.40;64.40
1025;DHT22;501;48.214;11.350;2022-09-03T15:44:12;19.20;61.50
1025;DHT22;501;48.214;11.350;2022-09-03T15:46:59;19.10;60.10
1025;DHT22;501;48.214;11.350;2022-09-03T15:49:50;19.00;59.30
1025;DHT22;501;48.214;11.350;2022-09-03T15:57:39;18.80;61.40
1025;DHT22;501;48.214;11.350;2022-09-03T16:00:10;18.80;65.70
1025;DHT22;501;48.214;11.350;2022-09-03T16:02:54;19.00;64.40
1025;DHT22;501;48.214;11.350;2022-09-03T16:05:46;19.20;63.40
1025;DHT22;501;48.214;11.350;2022-09-03T16:08:41;19.30;63.10
1025;DHT22;501;48.214;11.350;2022-09-03T16:19:44;19.10;60.50
1025;DHT22;501;48.214;11.350;2022-09-03T16:24:59;19.30;62.20
1025;DHT22;501;48.214;11.350;2022-09-03T16:27:32;19.30;61.80
1025;DHT22;501;48.214;11.350;2022-09-03T16:30:13;19.40;62.90
1025;DHT22;501;48.214;11.350;2022-09-03T16:43:44;19.40;57.20
1025;DHT22;501;48.214;11.350;2022-09-03T16:51:50;19.30;60.10
1025;DHT22;501;48.214;11.350;2022-09-03T17:00:27;19.10;59.70
1025;DHT22;501;48.214;11.350;2022-09-03T17:03:39;19.10;60.70
1025;DHT22;501;48.214;11.350;2022-09-03T17:11:39;18.90;60.90
1025;DHT22;501;48.214;11.350;2022-09-03T17:19:38;18.70;61.40
1025;DHT22;501;48.214;11.350;2022-09-03T17:22:31;18.70;62.60
1025;DHT22;501;48.214;11.350;2022-09-03T17:25:01;18.60;62.60
1025;DHT22;501;48.214;11.350;2022-09-03T17:27:46;18.60;63.60
1025;DHT22;501;48.214;11.350;2022-09-03T17:30:20;18.50;63.70
1025;DHT22;501;48.214;11.350;2022-09-03T17:36:21;18.50;64.80
1025;DHT22;501;48.214;11.350;2022-09-03T17:39:07;18.40;65.20
1025;DHT22;501;48.214;11.350;2022-09-03T17:41:53;18.40;65.30
1025;DHT22;501;48.214;11.350;2022-09-03T17:44:39;18.40;65.90
1025;DHT22;501;48.214;11.350;2022-09-03T17:49:47;18.30;65.30
1025;DHT22;501;48.214;11.350;2022-09-03T17:55:12;18.20;65.20
1025;DHT22;501;48.214;11.350;2022-09-03T17:57:45;18.20;65.20
1025;DHT22;501;48.214;11.350;2022-09-03T18:03:29;18.10;64.70
1025;DHT22;501;48.214;11.350;2022-09-03T18:06:02;18.10;63.70
1025;DHT22;501;48.214;11.350;2022-09-03T18:08:51;18.00;63.30
1025;DHT22;501;48.214;11.350;2022-09-03T18:16:50;17.90;63.90
1025;DHT22;501;48.214;11.350;2022-09-03T18:22:03;17.90;62.70
1025;DHT22;501;48.214;11.350;2022-09-03T18:24:56;17.80;62.50
1025;DHT22;501;48.214;11.350;2022-09-03T18:27:43;17.80;62.90
1025;DHT22;501;48.214;11.350;2022-09-03T18:30:28;17.70;62.70
1025;DHT22;501;48.214;11.350;2022-09-03T18:33:12;17.70;63.00
1025;DHT22;501;48.214;11.350;2022-09-03T18:35:57;17.60;63.40
1025;DHT22;501;48.214;11.350;2022-09-03T18:38:42;17.60;63.90
1025;DHT22;501;48.214;11.350;2022-09-03T18:48:16;17.50;63.50
1025;DHT22;501;48.214;11.350;2022-09-03T18:57:07;17.30;63.70
1025;DHT22;501;48.214;11.350;2022-09-03T19:00:03;17.20;64.20
1025;DHT22;501;48.214;11.350;2022-09-03T19:06:22;17.20;65.10
1025;DHT22;501;48.214;11.350;2022-09-03T19:10:02;17.10;65.60
1025;DHT22;501;48.214;11.350;2022-09-03T19:15:38;17.00;66.40
1025;DHT22;501;48.214;11.350;2022-09-03T19:29:54;16.90;64.40
1025;DHT22;501;48.214;11.350;2022-09-03T19:42:21;16.70;64.40
1025;DHT22;501;48.214;11.350;2022-09-03T19:45:25;16.70;64.50
1025;DHT22;501;48.214;11.350;2022-09-03T19:48:19;16.60;65.10
1025;DHT22;501;48.214;11.350;2022-09-03T19:51:15;16.60;65.10
1025;DHT22;501;48.214;11.350;2022-09-03T19:54:03;16.60;65.20
1025;DHT22;501;48.214;11.350;2022-09-03T19:56:49;16.50;64.90
1025;DHT22;501;48.214;11.350;2022-09-03T19:59:39;16.50;64.80
1025;DHT22;501;48.214;11.350;2022-09-03T20:02:24;16.40;65.20
1025;DHT22;501;48.214;11.350;2022-09-03T20:05:19;16.40;65.30
1025;DHT22;501;48.214;11.350;2022-09-03T20:08:04;16.40;65.80
1025;DHT22;501;48.214;11.350;2022-09-03T20:10:52;16.40;66.10
1025;DHT22;501;48.214;11.350;2022-09-03T20:13:21;16.30;66.10
1025;DHT22;501;48.214;11.350;2022-09-03T20:26:30;16.20;66.10
1025;DHT22;501;48.214;11.350;2022-09-03T20:32:55;16.10;65.50
1025;DHT22;501;48.214;11.350;2022-09-03T21:00:14;15.90;66.70
1025;DHT22;501;48.214;11.350;2022-09-03T21:03:10;15.90;67.00
1025;DHT22;501;48.214;11.350;2022-09-03T21:05:59;15.90;67.20
1025;DHT22;501;48.214;11.350;2022-09-03T21:11:04;15.80;66.20
1025;DHT22;501;48.214;11.350;2022-09-03T21:14:23;15.80;66.40
1025;DHT22;501;48.214;11.350;2022-09-03T21:19:08;15.70;66.40
1025;DHT22;501;48.214;11.350;2022-09-03T21:25:11;15.70;66.50
1025;DHT22;501;48.214;11.350;2022-09-03T21:27:42;15.60;66.50
1025;DHT22;501;48.214;11.350;2022-09-03T21:30:16;15.60;66.20
1025;DHT22;501;48.214;11.350;2022-09-03T21:32:55;15.60;67.00
1025;DHT22;501;48.214;11.350;2022-09-03T21:35:30;15.50;67.80
1025;DHT22;501;48.214;11.350;2022-09-03T21:38:05;15.50;67.90
1025;DHT22;501;48.214;11.350;2022-09-03T21:40:32;15.50;68.10
1025;DHT22;501;48.214;11.350;2022-09-03T21:43:14;15.50;68.70
1025;DHT22;501;48.214;11.350;2022-09-03T21:45:52;15.40;69.30
1025;DHT22;501;48.214;11.350;2022-09-03T21:48:24;15.40;70.50
1025;DHT22;501;48.214;11.350;2022-09-03T21:50:54;15.40;70.90
1025;DHT22;501;48.214;11.350;2022-09-03T21:53:54;15.40;71.00
1025;DHT22;501;48.214;11.350;2022-09-03T22:02:04;15.40;71.00
1025;DHT22;501;48.214;11.350;2022-09-03T22:04:31;15.40;70.60
1025;DHT22;501;48.214;11.350;2022-09-03T22:09:38;15.30;70.80
1025;DHT22;501;48.214;11.350;2022-09-03T22:12:16;15.30;69.70
1025;DHT22;501;48.214;11.350;2022-09-03T22:14:48;15.30;69.30
1025;DHT22;501;48.214;11.350;2022-09-03T22:17:29;15.30;69.30
1025;DHT22;501;48.214;11.350;2022-09-03T22:19:59;15.30;69.00
1025;DHT22;501;48.214;11.350;2022-09-03T22:25:22;15.30;69.60
1025;DHT22;501;48.214;11.350;2022-09-03T22:28:01;15.30;69.50
1025;DHT22;501;48.214;11.350;2022-09-03T22:30:53;15.30;70.20
1025;DHT22;501;48.214;11.350;2022-09-03T22:33:34;15.30;70.80
1025;DHT22;501;48.214;11.350;2022-09-03T22:36:13;15.20;70.90
1025;DHT22;501;48.214;11.350;2022-09-03T22:44:18;15.20;71.70
1025;DHT22;501;48.214;11.350;2022-09-03T22:53:15;15.20;72.40
1025;DHT22;501;48.214;11.350;2022-09-03T22:56:11;15.20;72.50
1025;DHT22;501;48.214;11.350;2022-09-03T22:58:50;15.10;72.90
1025;DHT22;501;48.214;11.350;2022-09-03T23:04:24;15.10;73.10
1025;DHT22;501;48.214;11.350;2022-09-03T23:06:56;15.10;73.50
1025;DHT22;501;48.214;11.350;2022-09-03T23:09:27;15.10;73.50
1025;DHT22;501;48.214;11.350;2022-09-03T23:11:59;15.10;73.90
1025;DHT22;501;48.214;11.350;2022-09-03T23:14:32;15.10;74.00
1025;DHT22;501;48.214;11.350;2022-09-03T23:17:29;15.10;73.70
1025;DHT22;501;48.214;11.350;2022-09-03T23:22:50;15.10;72.90
1025;DHT22;501;48.214;11.350;2022-09-03T23:25:32;15.10;72.40
1025;DHT22;501;48.214;11.350;2022-09-03T23:28:31;15.10;73.10
1025;DHT22;501;48.214;11.350;2022-09-03T23:33:38;15.10;72.60
1025;DHT22;501;48.214;11.350;2022-09-03T23:42:03;15.00;73.20
1025;DHT22;501;48.214;11.350;2022-09-03T23:45:03;15.00;72.80
1025;DHT22;501;48.214;11.350;2022-09-03T23:47:50;15.00;72.00
